ADDS METAR Data INFO
IDs: Format: Raw Decoded Include TAF

Data at: 0059 UTC 22 Oct 2017

KI67 220055Z AUTO 00000KT 10SM CLR 14/10 A3021 RMK AO1
KI67 220035Z AUTO 00000KT 10SM CLR 14/10 A3020 RMK AO1
KI67 220015Z AUTO 00000KT 10SM CLR 14/10 A3021 RMK AO1
KI67 212355Z AUTO 00000KT 10SM CLR 16/09 A3021 RMK AO1
KI67 212335Z AUTO 00000KT 10SM CLR 15/09 A3020 RMK AO1
KI67 212315Z AUTO 00000KT 10SM CLR 16/09 A3020 RMK AO1
KI67 212255Z AUTO 00000KT 10SM CLR 18/07 A3019 RMK AO1
KI67 212235Z AUTO 15004KT 10SM CLR 20/07 A3019 RMK AO1
KI67 212215Z AUTO 15004KT 10SM CLR 20/07 A3019 RMK AO1
KI67 212155Z AUTO 17004KT 10SM CLR 21/06 A3019 RMK AO1
KI67 212135Z AUTO 17008KT 10SM CLR 22/07 A3019 RMK AO1
KI67 212115Z AUTO 18008KT 10SM CLR 23/08 A3019 RMK AO1
KI67 212055Z AUTO 17005KT 10SM CLR 22/08 A3019 RMK AO1
KI67 212035Z AUTO 20005KT 10SM CLR 23/08 A3020 RMK AO1
KI67 212015Z AUTO 20007KT 10SM CLR 22/07 A3020 RMK AO1
KI67 211955Z AUTO 19008KT 10SM CLR 22/08 A3020 RMK AO1
KI67 211935Z AUTO 19006KT 7SM CLR 22/08 A3021 RMK AO1
KI67 211915Z AUTO 20005KT 10SM CLR 22/08 A3021 RMK AO1
KI67 211855Z AUTO 19004KT 7SM CLR 21/08 A3021 RMK AO1
KI67 211835Z AUTO 19005KT 10SM CLR 21/09 A3021 RMK AO1
KI67 211815Z AUTO 20004KT 10SM CLR 21/08 A3021 RMK AO1
KI67 211755Z AUTO 21005KT 10SM CLR 21/10 A3022 RMK AO1
KI67 211735Z AUTO 20004KT 7SM CLR 21/11 A3023 RMK AO1
KI67 211715Z AUTO 18005KT 7SM CLR 20/11 A3024 RMK AO1
KI67 211655Z AUTO 21005KT 10SM CLR 20/11 A3024 RMK AO1
KI67 211635Z AUTO 18005KT 10SM CLR 19/11 A3024 RMK AO1
KI67 211615Z AUTO 20005KT 7SM CLR 18/11 A3025 RMK AO1
KI67 211555Z AUTO 18005KT 7SM CLR 18/10 A3025 RMK AO1
KI67 211535Z AUTO 17005KT 7SM CLR 17/11 A3025 RMK AO1
KI67 211515Z AUTO 18006KT 7SM CLR 17/11 A3025 RMK AO1
KI67 211455Z AUTO 19004KT 7SM CLR 17/11 A3025 RMK AO1
KI67 211435Z AUTO 19003KT 10SM CLR 15/11 A3025 RMK AO1
KI67 211415Z AUTO 00000KT 10SM CLR 13/10 A3025 RMK AO1
KI67 211355Z AUTO 00000KT 10SM CLR 12/10 A3025 RMK AO1
KI67 211335Z AUTO 00000KT 10SM CLR 10/08 A3024 RMK AO1
KI67 211315Z AUTO 00000KT 7SM CLR 10/08 A3024 RMK AO1
KI67 211255Z AUTO 00000KT 10SM CLR 08/07 A3024 RMK AO1
KI67 211235Z AUTO 00000KT 7SM CLR 07/06 A3024 RMK AO1
KI67 211215Z AUTO 00000KT 5SM CLR 07/06 A3022 RMK AO1
KI67 211155Z AUTO 00000KT 7SM CLR 07/05 A3022 RMK AO1
KI67 211135Z AUTO 00000KT 7SM CLR 07/06 A3022 RMK AO1
KI67 211115Z AUTO 00000KT 7SM CLR 07/06 A3022 RMK AO1
KI67 211055Z AUTO 00000KT 7SM CLR 07/05 A3022 RMK AO1
KI67 211035Z AUTO 00000KT 10SM CLR 07/06 A3021 RMK AO1
KI67 211015Z AUTO 00000KT 10SM CLR 08/07 A3021 RMK AO1
KI67 210955Z AUTO 00000KT 10SM CLR 07/06 A3020 RMK AO1
KI67 210935Z AUTO 00000KT 10SM CLR 07/06 A3019 RMK AO1
KI67 210915Z AUTO 00000KT 10SM BKN003 07/06 A3019 RMK AO1
KI67 210855Z AUTO 00000KT 7SM BKN003 07/06 A3019 RMK AO1
KI67 210835Z AUTO 00000KT 7SM CLR 07/06 A3019 RMK AO1
KI67 210815Z AUTO 00000KT 5SM CLR 08/07 A3019 RMK AO1
KI67 210755Z AUTO 00000KT 7SM CLR 07/06 A3019 RMK AO1
KI67 210735Z AUTO 00000KT 5SM CLR 08/07 A3018 RMK AO1
KI67 210715Z AUTO 00000KT 5SM CLR 07/06 A3018 RMK AO1
KI67 210655Z AUTO 00000KT 7SM CLR 08/07 A3018 RMK AO1
KI67 210635Z AUTO 00000KT 4SM CLR 08/07 A3018 RMK AO1
KI67 210615Z AUTO 00000KT 3/4SM VV005 08/07 A3019 RMK AO1 VIS 1/4V5
KI67 210555Z AUTO 00000KT 5SM CLR 09/08 A3019 RMK AO1
KI67 210535Z AUTO 00000KT 5SM CLR 09/08 A3019 RMK AO1
KI67 210515Z AUTO 00000KT 10SM CLR 09/08 A3019 RMK AO1
KI67 210455Z AUTO 00000KT 7SM CLR 08/07 A3019 RMK AO1
KI67 210435Z AUTO 00000KT 10SM CLR 10/09 A3020 RMK AO1
KI67 210415Z AUTO 00000KT 7SM CLR 10/09 A3020 RMK AO1
KI67 210355Z AUTO 00000KT 7SM CLR 10/08 A3019 RMK AO1
KI67 210335Z AUTO 00000KT 7SM CLR 10/09 A3020 RMK AO1
KI67 210315Z AUTO 00000KT 4SM CLR 10/09 A3019 RMK AO1
KI67 210255Z AUTO 00000KT 10SM CLR 11/09 A3020 RMK AO1
KI67 210235Z AUTO 00000KT 10SM CLR 12/10 A3020 RMK AO1
KI67 210215Z AUTO 00000KT 3SM CLR 12/10 A3019 RMK AO1
KI67 210155Z AUTO 00000KT 10SM CLR 12/10 A3019 RMK AO1
KI67 210135Z AUTO 00000KT 10SM CLR 13/11 A3019 RMK AO1
KI67 210115Z AUTO 00000KT 2 1/2SM CLR 13/10 A3019 RMK AO1 VIS 1V5
KI67 210055Z AUTO 00000KT 4SM CLR 13/11 A3019 RMK AO1
KI67 210035Z AUTO 00000KT 10SM CLR 14/11 A3019 RMK AO1
KI67 210015Z AUTO 00000KT 7SM CLR 15/11 A3019 RMK AO1
KI67 202355Z AUTO 00000KT 7SM CLR 16/11 A3019 RMK AO1
KI67 202335Z AUTO 00000KT 10SM CLR 17/11 A3019 RMK AO1
KI67 202315Z AUTO 00000KT 7SM CLR 18/11 A3018 RMK AO1
KI67 202255Z AUTO 00000KT 10SM CLR 20/10 A3018 RMK AO1
KI67 202235Z AUTO 00000KT 10SM CLR 22/10 A3018 RMK AO1
KI67 202215Z AUTO 17004KT 10SM CLR 23/10 A3018 RMK AO1
KI67 202155Z AUTO 18004KT 10SM CLR 23/10 A3018 RMK AO1
KI67 202135Z AUTO 17004KT 10SM CLR 23/10 A3018 RMK AO1
KI67 202115Z AUTO 15005KT 10SM CLR 23/10 A3019 RMK AO1
KI67 202055Z AUTO 17005KT 10SM CLR 24/09 A3019 RMK AO1
KI67 202035Z AUTO 17005KT 10SM CLR 24/10 A3019 RMK AO1
KI67 202015Z AUTO 17006KT 10SM CLR 24/09 A3019 RMK AO1
KI67 201955Z AUTO 18003KT 10SM CLR 24/10 A3020 RMK AO1
KI67 201935Z AUTO 21006KT 10SM CLR 24/10 A3021 RMK AO1
KI67 201915Z AUTO 14005KT 10SM CLR 23/10 A3021 RMK AO1
KI67 201855Z AUTO 15007KT 10SM CLR 23/11 A3022 RMK AO1
KI67 201835Z AUTO 21006KT 10SM CLR 23/10 A3023 RMK AO1
KI67 201815Z AUTO 20004KT 10SM CLR 23/11 A3023 RMK AO1
KI67 201755Z AUTO 14004KT 10SM CLR 23/11 A3024 RMK AO1
KI67 201735Z AUTO 22004KT 10SM CLR 22/11 A3026 RMK AO1
KI67 201715Z AUTO 00000KT 10SM CLR 22/11 A3027 RMK AO1
KI67 201655Z AUTO 00000KT 10SM CLR 21/10 A3028 RMK AO1
KI67 201635Z AUTO 20003KT 10SM CLR 20/11 A3029 RMK AO1
KI67 201615Z AUTO 20003KT 10SM CLR 19/11 A3029 RMK AO1
KI67 201555Z AUTO 17003KT 10SM CLR 18/11 A3030 RMK AO1
KI67 201535Z AUTO 19003KT 10SM CLR 16/12 A3031 RMK AO1
KI67 201515Z AUTO 00000KT 7SM CLR 14/13 A3031 RMK AO1
KI67 201455Z AUTO 00000KT 3SM SCT002 12/11 A3032 RMK AO1
KI67 201435Z AUTO 00000KT 3/4SM OVC002 11/10 A3032 RMK AO1
KI67 201415Z AUTO 00000KT M1/4SM OVC002 10/08 A3032 RMK AO1
KI67 201355Z AUTO 00000KT M1/4SM OVC002 09/08 A3032 RMK AO1
KI67 201335Z AUTO 00000KT M1/4SM OVC002 08/07 A3032 RMK AO1
KI67 201315Z AUTO 00000KT M1/4SM OVC002 08/07 A3032 RMK AO1